sensor_id;sensor_type;location;lat;lon;timestamp;P1;durP1;ratioP1;P2;durP2;ratioP2
56081;SDS011;41957;52.060;5.138;2022-07-01T00:02:24;10.45;;;3.10;;
56081;SDS011;41957;52.060;5.138;2022-07-01T00:04:50;10.20;;;2.85;;
56081;SDS011;41957;52.060;5.138;2022-07-01T00:07:15;12.25;;;3.38;;
56081;SDS011;41957;52.060;5.138;2022-07-01T00:09:41;10.35;;;3.10;;
56081;SDS011;41957;52.060;5.138;2022-07-01T00:12:06;10.13;;;3.40;;
56081;SDS011;41957;52.060;5.138;2022-07-01T00:14:33;11.88;;;3.58;;
56081;SDS011;41957;52.060;5.138;2022-07-01T00:16:58;11.55;;;3.25;;
56081;SDS011;41957;52.060;5.138;2022-07-01T00:19:24;11.25;;;3.55;;
56081;SDS011;41957;52.060;5.138;2022-07-01T00:21:50;11.13;;;3.45;;
56081;SDS011;41957;52.060;5.138;2022-07-01T00:24:15;10.15;;;3.35;;
56081;SDS011;41957;52.060;5.138;2022-07-01T00:26:41;12.00;;;3.90;;
56081;SDS011;41957;52.060;5.138;2022-07-01T00:29:06;11.38;;;3.95;;
56081;SDS011;41957;52.060;5.138;2022-07-01T00:31:31;11.63;;;3.63;;
56081;SDS011;41957;52.060;5.138;2022-07-01T00:33:57;9.90;;;3.33;;
56081;SDS011;41957;52.060;5.138;2022-07-01T00:36:22;10.90;;;3.25;;
56081;SDS011;41957;52.060;5.138;2022-07-01T00:38:47;10.30;;;3.42;;
56081;SDS011;41957;52.060;5.138;2022-07-01T00:41:13;10.73;;;3.78;;
56081;SDS011;41957;52.060;5.138;2022-07-01T00:43:38;10.57;;;3.75;;
56081;SDS011;41957;52.060;5.138;2022-07-01T00:46:04;11.68;;;3.72;;
56081;SDS011;41957;52.060;5.138;2022-07-01T00:48:31;11.52;;;3.70;;
56081;SDS011;41957;52.060;5.138;2022-07-01T00:50:58;10.68;;;3.83;;
56081;SDS011;41957;52.060;5.138;2022-07-01T00:53:24;11.73;;;3.72;;
56081;SDS011;41957;52.060;5.138;2022-07-01T00:55:49;11.52;;;4.05;;
56081;SDS011;41957;52.060;5.138;2022-07-01T00:58:15;11.48;;;4.05;;
56081;SDS011;41957;52.060;5.138;2022-07-01T01:00:41;10.43;;;3.85;;
56081;SDS011;41957;52.060;5.138;2022-07-01T01:03:07;12.30;;;4.50;;
56081;SDS011;41957;52.060;5.138;2022-07-01T01:05:35;11.15;;;4.45;;
56081;SDS011;41957;52.060;5.138;2022-07-01T01:08:02;12.05;;;4.68;;
56081;SDS011;41957;52.060;5.138;2022-07-01T01:10:27;11.85;;;4.47;;
56081;SDS011;41957;52.060;5.138;2022-07-01T01:12:53;11.77;;;4.78;;
56081;SDS011;41957;52.060;5.138;2022-07-01T01:15:20;12.15;;;5.10;;
56081;SDS011;41957;52.060;5.138;2022-07-01T01:17:46;12.98;;;5.30;;
56081;SDS011;41957;52.060;5.138;2022-07-01T01:20:15;11.90;;;5.25;;
56081;SDS011;41957;52.060;5.138;2022-07-01T01:22:42;11.82;;;5.18;;
56081;SDS011;41957;52.060;5.138;2022-07-01T01:25:09;13.23;;;5.72;;
56081;SDS011;41957;52.060;5.138;2022-07-01T01:27:34;12.38;;;5.60;;
56081;SDS011;41957;52.060;5.138;2022-07-01T01:29:59;12.73;;;5.47;;
56081;SDS011;41957;52.060;5.138;2022-07-01T01:32:25;12.10;;;5.32;;
56081;SDS011;41957;52.060;5.138;2022-07-01T01:34:50;12.45;;;5.90;;
56081;SDS011;41957;52.060;5.138;2022-07-01T01:37:15;12.98;;;6.53;;
56081;SDS011;41957;52.060;5.138;2022-07-01T01:39:41;12.88;;;5.90;;
56081;SDS011;41957;52.060;5.138;2022-07-01T01:42:06;12.50;;;6.32;;
56081;SDS011;41957;52.060;5.138;2022-07-01T01:44:32;13.30;;;6.38;;
56081;SDS011;41957;52.060;5.138;2022-07-01T01:46:58;14.20;;;6.18;;
56081;SDS011;41957;52.060;5.138;2022-07-01T01:49:23;12.40;;;6.18;;
56081;SDS011;41957;52.060;5.138;2022-07-01T01:51:49;13.13;;;6.13;;
56081;SDS011;41957;52.060;5.138;2022-07-01T01:54:14;14.40;;;6.38;;
56081;SDS011;41957;52.060;5.138;2022-07-01T01:56:39;11.93;;;6.15;;
56081;SDS011;41957;52.060;5.138;2022-07-01T01:59:05;12.38;;;6.15;;
56081;SDS011;41957;52.060;5.138;2022-07-01T02:01:31;13.23;;;6.50;;
56081;SDS011;41957;52.060;5.138;2022-07-01T02:03:57;12.38;;;6.50;;
56081;SDS011;41957;52.060;5.138;2022-07-01T02:06:24;13.77;;;7.13;;
56081;SDS011;41957;52.060;5.138;2022-07-01T02:08:49;13.55;;;6.47;;
56081;SDS011;41957;52.060;5.138;2022-07-01T02:11:15;12.85;;;6.60;;
56081;SDS011;41957;52.060;5.138;2022-07-01T02:13:40;13.57;;;6.93;;
56081;SDS011;41957;52.060;5.138;2022-07-01T02:16:06;13.68;;;6.90;;
56081;SDS011;41957;52.060;5.138;2022-07-01T02:18:32;13.63;;;7.45;;
56081;SDS011;41957;52.060;5.138;2022-07-01T02:20:58;14.02;;;7.85;;
56081;SDS011;41957;52.060;5.138;2022-07-01T02:23:24;13.23;;;7.07;;
56081;SDS011;41957;52.060;5.138;2022-07-01T02:25:50;14.07;;;7.50;;
56081;SDS011;41957;52.060;5.138;2022-07-01T02:28:15;14.77;;;8.00;;
56081;SDS011;41957;52.060;5.138;2022-07-01T02:30:41;14.43;;;7.80;;
56081;SDS011;41957;52.060;5.138;2022-07-01T02:33:07;13.48;;;7.95;;
56081;SDS011;41957;52.060;5.138;2022-07-01T02:35:36;14.25;;;7.57;;
56081;SDS011;41957;52.060;5.138;2022-07-01T02:38:03;13.57;;;7.63;;
56081;SDS011;41957;52.060;5.138;2022-07-01T02:40:29;13.50;;;7.55;;
56081;SDS011;41957;52.060;5.138;2022-07-01T02:42:55;14.57;;;8.10;;
56081;SDS011;41957;52.060;5.138;2022-07-01T02:45:21;13.93;;;7.80;;
56081;SDS011;41957;52.060;5.138;2022-07-01T02:47:46;13.68;;;7.85;;
56081;SDS011;41957;52.060;5.138;2022-07-01T02:50:13;15.52;;;8.85;;
56081;SDS011;41957;52.060;5.138;2022-07-01T02:52:39;12.98;;;7.38;;
56081;SDS011;41957;52.060;5.138;2022-07-01T02:55:07;13.40;;;7.93;;
56081;SDS011;41957;52.060;5.138;2022-07-01T02:57:34;15.20;;;8.23;;
56081;SDS011;41957;52.060;5.138;2022-07-01T03:00:00;13.30;;;7.80;;
56081;SDS011;41957;52.060;5.138;2022-07-01T03:02:25;13.50;;;7.90;;
56081;SDS011;41957;52.060;5.138;2022-07-01T03:04:51;13.90;;;7.78;;
56081;SDS011;41957;52.060;5.138;2022-07-01T03:07:18;15.65;;;8.75;;
56081;SDS011;41957;52.060;5.138;2022-07-01T03:09:45;15.32;;;9.15;;
56081;SDS011;41957;52.060;5.138;2022-07-01T03:12:11;14.68;;;8.20;;
56081;SDS011;41957;52.060;5.138;2022-07-01T03:14:59;15.68;;;8.05;;
56081;SDS011;41957;52.060;5.138;2022-07-01T03:17:30;14.18;;;7.97;;
56081;SDS011;41957;52.060;5.138;2022-07-01T03:19:56;14.90;;;8.48;;
56081;SDS011;41957;52.060;5.138;2022-07-01T03:22:23;15.32;;;8.18;;
56081;SDS011;41957;52.060;5.138;2022-07-01T03:24:50;14.48;;;8.00;;
56081;SDS011;41957;52.060;5.138;2022-07-01T03:27:16;14.00;;;8.23;;
56081;SDS011;41957;52.060;5.138;2022-07-01T03:29:43;14.68;;;8.32;;
56081;SDS011;41957;52.060;5.138;2022-07-01T03:32:09;15.18;;;8.43;;
56081;SDS011;41957;52.060;5.138;2022-07-01T03:34:39;14.40;;;8.10;;
56081;SDS011;41957;52.060;5.138;2022-07-01T03:37:06;13.85;;;8.32;;
56081;SDS011;41957;52.060;5.138;2022-07-01T03:39:32;14.95;;;8.80;;
56081;SDS011;41957;52.060;5.138;2022-07-01T03:41:58;14.20;;;8.48;;
56081;SDS011;41957;52.060;5.138;2022-07-01T03:44:23;13.82;;;8.20;;
56081;SDS011;41957;52.060;5.138;2022-07-01T03:46:49;14.70;;;8.68;;
56081;SDS011;41957;52.060;5.138;2022-07-01T03:49:14;15.23;;;8.82;;
56081;SDS011;41957;52.060;5.138;2022-07-01T03:51:39;14.30;;;8.80;;
56081;SDS011;41957;52.060;5.138;2022-07-01T03:54:05;14.48;;;8.05;;
56081;SDS011;41957;52.060;5.138;2022-07-01T03:56:49;14.73;;;8.77;;
56081;SDS011;41957;52.060;5.138;2022-07-01T03:59:14;15.45;;;7.95;;
56081;SDS011;41957;52.060;5.138;2022-07-01T04:01:39;14.48;;;8.40;;
56081;SDS011;41957;52.060;5.138;2022-07-01T04:04:05;15.07;;;8.55;;
56081;SDS011;41957;52.060;5.138;2022-07-01T04:06:30;15.50;;;8.48;;
56081;SDS011;41957;52.060;5.138;2022-07-01T04:08:56;13.90;;;8.10;;
56081;SDS011;41957;52.060;5.138;2022-07-01T04:11:21;14.00;;;8.35;;
56081;SDS011;41957;52.060;5.138;2022-07-01T04:13:47;13.85;;;8.07;;
56081;SDS011;41957;52.060;5.138;2022-07-01T04:16:16;14.10;;;8.65;;
56081;SDS011;41957;52.060;5.138;2022-07-01T04:18:42;14.27;;;8.15;;
56081;SDS011;41957;52.060;5.138;2022-07-01T04:21:08;14.50;;;7.85;;
56081;SDS011;41957;52.060;5.138;2022-07-01T04:23:51;14.35;;;7.88;;
56081;SDS011;41957;52.060;5.138;2022-07-01T04:26:17;15.00;;;7.88;;
56081;SDS011;41957;52.060;5.138;2022-07-01T04:28:42;16.17;;;8.00;;
56081;SDS011;41957;52.060;5.138;2022-07-01T04:31:07;15.60;;;8.73;;
56081;SDS011;41957;52.060;5.138;2022-07-01T04:33:33;14.43;;;8.07;;
56081;SDS011;41957;52.060;5.138;2022-07-01T04:35:58;15.05;;;8.48;;
56081;SDS011;41957;52.060;5.138;2022-07-01T04:38:24;15.48;;;8.35;;
56081;SDS011;41957;52.060;5.138;2022-07-01T04:40:49;16.75;;;8.52;;
56081;SDS011;41957;52.060;5.138;2022-07-01T04:43:33;14.02;;;8.13;;
56081;SDS011;41957;52.060;5.138;2022-07-01T04:45:58;14.20;;;7.97;;
56081;SDS011;41957;52.060;5.138;2022-07-01T04:48:24;14.60;;;8.30;;
56081;SDS011;41957;52.060;5.138;2022-07-01T04:50:49;15.02;;;8.60;;
56081;SDS011;41957;52.060;5.138;2022-07-01T04:53:14;14.95;;;9.02;;
56081;SDS011;41957;52.060;5.138;2022-07-01T04:55:40;15.35;;;8.73;;
56081;SDS011;41957;52.060;5.138;2022-07-01T04:58:05;13.75;;;7.80;;
56081;SDS011;41957;52.060;5.138;2022-07-01T05:00:30;13.85;;;8.45;;
56081;SDS011;41957;52.060;5.138;2022-07-01T05:02:57;14.55;;;8.35;;
56081;SDS011;41957;52.060;5.138;2022-07-01T05:05:22;14.95;;;8.02;;
56081;SDS011;41957;52.060;5.138;2022-07-01T05:07:47;14.95;;;7.97;;
56081;SDS011;41957;52.060;5.138;2022-07-01T05:10:13;13.80;;;8.23;;
56081;SDS011;41957;52.060;5.138;2022-07-01T05:12:38;13.98;;;8.05;;
56081;SDS011;41957;52.060;5.138;2022-07-01T05:15:04;15.02;;;7.82;;
56081;SDS011;41957;52.060;5.138;2022-07-01T05:17:29;14.93;;;7.75;;
56081;SDS011;41957;52.060;5.138;2022-07-01T05:20:13;15.77;;;8.55;;
56081;SDS011;41957;52.060;5.138;2022-07-01T05:22:57;14.75;;;7.63;;
56081;SDS011;41957;52.060;5.138;2022-07-01T05:25:22;15.38;;;8.02;;
56081;SDS011;41957;52.060;5.138;2022-07-01T05:27:48;16.95;;;8.63;;
56081;SDS011;41957;52.060;5.138;2022-07-01T05:30:13;18.33;;;7.70;;
56081;SDS011;41957;52.060;5.138;2022-07-01T05:32:39;15.30;;;6.70;;
56081;SDS011;41957;52.060;5.138;2022-07-01T05:35:04;14.88;;;7.00;;
56081;SDS011;41957;52.060;5.138;2022-07-01T05:37:30;14.02;;;5.85;;
56081;SDS011;41957;52.060;5.138;2022-07-01T05:39:55;13.55;;;6.15;;
56081;SDS011;41957;52.060;5.138;2022-07-01T05:42:21;12.48;;;5.30;;
56081;SDS011;41957;52.060;5.138;2022-07-01T05:44:46;13.05;;;5.43;;
56081;SDS011;41957;52.060;5.138;2022-07-01T05:47:11;12.38;;;4.90;;
56081;SDS011;41957;52.060;5.138;2022-07-01T05:49:36;13.18;;;5.20;;
56081;SDS011;41957;52.060;5.138;2022-07-01T05:52:02;13.60;;;5.50;;
56081;SDS011;41957;52.060;5.138;2022-07-01T05:54:27;13.60;;;5.43;;
56081;SDS011;41957;52.060;5.138;2022-07-01T05:56:53;13.32;;;5.45;;
56081;SDS011;41957;52.060;5.138;2022-07-01T05:59:18;12.55;;;5.60;;
56081;SDS011;41957;52.060;5.138;2022-07-01T06:01:43;13.93;;;5.57;;
56081;SDS011;41957;52.060;5.138;2022-07-01T06:04:10;14.07;;;4.95;;
56081;SDS011;41957;52.060;5.138;2022-07-01T06:06:36;14.65;;;6.30;;
56081;SDS011;41957;52.060;5.138;2022-07-01T06:09:01;14.75;;;5.82;;
56081;SDS011;41957;52.060;5.138;2022-07-01T06:11:27;14.77;;;5.28;;
56081;SDS011;41957;52.060;5.138;2022-07-01T06:13:52;11.55;;;4.40;;
56081;SDS011;41957;52.060;5.138;2022-07-01T06:16:18;12.90;;;4.30;;
56081;SDS011;41957;52.060;5.138;2022-07-01T06:18:43;15.23;;;4.53;;
56081;SDS011;41957;52.060;5.138;2022-07-01T06:21:08;18.98;;;6.38;;
56081;SDS011;41957;52.060;5.138;2022-07-01T06:23:34;13.85;;;5.25;;
56081;SDS011;41957;52.060;5.138;2022-07-01T06:25:59;12.48;;;4.93;;
56081;SDS011;41957;52.060;5.138;2022-07-01T06:28:25;14.43;;;4.20;;
56081;SDS011;41957;52.060;5.138;2022-07-01T06:30:54;12.35;;;4.18;;
56081;SDS011;41957;52.060;5.138;2022-07-01T06:33:20;14.27;;;3.75;;
56081;SDS011;41957;52.060;5.138;2022-07-01T06:35:46;13.88;;;3.47;;
56081;SDS011;41957;52.060;5.138;2022-07-01T06:38:11;14.35;;;3.20;;
56081;SDS011;41957;52.060;5.138;2022-07-01T06:40:37;12.18;;;3.15;;
56081;SDS011;41957;52.060;5.138;2022-07-01T06:43:02;12.88;;;3.10;;
56081;SDS011;41957;52.060;5.138;2022-07-01T06:45:28;11.25;;;3.05;;
56081;SDS011;41957;52.060;5.138;2022-07-01T06:47:53;13.50;;;3.58;;
56081;SDS011;41957;52.060;5.138;2022-07-01T06:50:19;12.63;;;2.92;;
56081;SDS011;41957;52.060;5.138;2022-07-01T06:52:44;10.82;;;3.10;;
56081;SDS011;41957;52.060;5.138;2022-07-01T06:55:10;11.00;;;3.05;;
56081;SDS011;41957;52.060;5.138;2022-07-01T06:57:35;12.55;;;3.10;;
56081;SDS011;41957;52.060;5.138;2022-07-01T07:00:00;11.50;;;2.90;;
56081;SDS011;41957;52.060;5.138;2022-07-01T07:02:26;13.02;;;3.20;;
56081;SDS011;41957;52.060;5.138;2022-07-01T07:04:51;11.35;;;3.85;;
56081;SDS011;41957;52.060;5.138;2022-07-01T07:07:22;14.70;;;4.18;;
56081;SDS011;41957;52.060;5.138;2022-07-01T07:09:47;18.38;;;4.85;;
56081;SDS011;41957;52.060;5.138;2022-07-01T07:12:12;15.20;;;4.78;;
56081;SDS011;41957;52.060;5.138;2022-07-01T07:14:38;14.15;;;4.10;;
56081;SDS011;41957;52.060;5.138;2022-07-01T07:17:03;13.10;;;4.82;;
56081;SDS011;41957;52.060;5.138;2022-07-01T07:19:28;14.70;;;5.03;;
56081;SDS011;41957;52.060;5.138;2022-07-01T07:21:54;13.32;;;4.60;;
56081;SDS011;41957;52.060;5.138;2022-07-01T07:24:21;15.13;;;4.53;;
56081;SDS011;41957;52.060;5.138;2022-07-01T07:26:47;13.77;;;4.43;;
56081;SDS011;41957;52.060;5.138;2022-07-01T07:29:12;15.88;;;4.22;;
56081;SDS011;41957;52.060;5.138;2022-07-01T07:31:38;15.57;;;3.60;;
56081;SDS011;41957;52.060;5.138;2022-07-01T07:34:03;15.18;;;3.40;;
56081;SDS011;41957;52.060;5.138;2022-07-01T07:36:28;10.90;;;3.22;;
56081;SDS011;41957;52.060;5.138;2022-07-01T07:38:54;14.48;;;3.10;;
56081;SDS011;41957;52.060;5.138;2022-07-01T07:41:19;13.43;;;3.15;;
56081;SDS011;41957;52.060;5.138;2022-07-01T07:43:44;12.00;;;2.75;;
56081;SDS011;41957;52.060;5.138;2022-07-01T07:46:10;12.60;;;2.95;;
56081;SDS011;41957;52.060;5.138;2022-07-01T07:48:36;12.13;;;2.78;;
56081;SDS011;41957;52.060;5.138;2022-07-01T07:51:01;11.60;;;2.47;;
56081;SDS011;41957;52.060;5.138;2022-07-01T07:53:27;11.85;;;2.90;;
56081;SDS011;41957;52.060;5.138;2022-07-01T07:55:52;14.35;;;2.97;;
56081;SDS011;41957;52.060;5.138;2022-07-01T07:58:17;12.82;;;2.78;;
56081;SDS011;41957;52.060;5.138;2022-07-01T08:00:43;14.88;;;3.53;;
56081;SDS011;41957;52.060;5.138;2022-07-01T08:03:08;11.23;;;3.05;;
56081;SDS011;41957;52.060;5.138;2022-07-01T08:05:34;15.05;;;3.25;;
56081;SDS011;41957;52.060;5.138;2022-07-01T08:07:59;13.38;;;2.80;;
56081;SDS011;41957;52.060;5.138;2022-07-01T08:10:24;15.07;;;3.40;;
56081;SDS011;41957;52.060;5.138;2022-07-01T08:12:50;15.10;;;3.45;;
56081;SDS011;41957;52.060;5.138;2022-07-01T08:15:16;11.43;;;2.95;;
56081;SDS011;41957;52.060;5.138;2022-07-01T08:17:41;14.23;;;3.22;;
56081;SDS011;41957;52.060;5.138;2022-07-01T08:20:06;14.52;;;3.08;;
56081;SDS011;41957;52.060;5.138;2022-07-01T08:22:33;14.13;;;3.00;;
56081;SDS011;41957;52.060;5.138;2022-07-01T08:24:58;11.13;;;2.60;;
56081;SDS011;41957;52.060;5.138;2022-07-01T08:27:23;14.65;;;2.75;;
56081;SDS011;41957;52.060;5.138;2022-07-01T08:29:49;12.18;;;2.53;;
56081;SDS011;41957;52.060;5.138;2022-07-01T08:32:14;10.07;;;2.50;;
56081;SDS011;41957;52.060;5.138;2022-07-01T08:34:41;13.57;;;2.47;;
56081;SDS011;41957;52.060;5.138;2022-07-01T08:37:06;12.90;;;2.85;;
56081;SDS011;41957;52.060;5.138;2022-07-01T08:39:31;9.68;;;2.38;;
56081;SDS011;41957;52.060;5.138;2022-07-01T08:41:57;11.63;;;2.50;;
56081;SDS011;41957;52.060;5.138;2022-07-01T08:44:22;10.88;;;2.28;;
56081;SDS011;41957;52.060;5.138;2022-07-01T08:46:49;14.18;;;2.55;;
56081;SDS011;41957;52.060;5.138;2022-07-01T08:49:15;10.48;;;2.45;;
56081;SDS011;41957;52.060;5.138;2022-07-01T08:51:41;13.23;;;2.50;;
56081;SDS011;41957;52.060;5.138;2022-07-01T08:54:06;11.60;;;2.20;;
56081;SDS011;41957;52.060;5.138;2022-07-01T08:56:32;12.65;;;2.63;;
56081;SDS011;41957;52.060;5.138;2022-07-01T08:59:07;13.10;;;2.50;;
56081;SDS011;41957;52.060;5.138;2022-07-01T09:01:36;10.20;;;2.25;;
56081;SDS011;41957;52.060;5.138;2022-07-01T09:09:33;12.40;;;2.60;;
56081;SDS011;41957;52.060;5.138;2022-07-01T09:12:00;14.70;;;2.58;;
56081;SDS011;41957;52.060;5.138;2022-07-01T09:14:30;11.65;;;2.35;;
56081;SDS011;41957;52.060;5.138;2022-07-01T09:16:57;12.88;;;2.80;;
56081;SDS011;41957;52.060;5.138;2022-07-01T09:19:27;12.38;;;2.38;;
56081;SDS011;41957;52.060;5.138;2022-07-01T09:21:55;8.45;;;2.10;;
56081;SDS011;41957;52.060;5.138;2022-07-01T09:24:31;12.85;;;2.10;;
56081;SDS011;41957;52.060;5.138;2022-07-01T09:27:02;8.68;;;2.05;;
56081;SDS011;41957;52.060;5.138;2022-07-01T09:29:34;8.27;;;2.00;;
56081;SDS011;41957;52.060;5.138;2022-07-01T09:32:02;11.10;;;2.28;;
56081;SDS011;41957;52.060;5.138;2022-07-01T09:34:35;11.57;;;2.10;;
56081;SDS011;41957;52.060;5.138;2022-07-01T09:37:05;11.15;;;2.28;;
56081;SDS011;41957;52.060;5.138;2022-07-01T09:39:41;11.27;;;2.20;;
56081;SDS011;41957;52.060;5.138;2022-07-01T09:42:10;10.77;;;2.03;;
56081;SDS011;41957;52.060;5.138;2022-07-01T09:44:50;9.38;;;2.08;;
56081;SDS011;41957;52.060;5.138;2022-07-01T09:47:24;8.40;;;1.70;;
56081;SDS011;41957;52.060;5.138;2022-07-01T09:49:53;8.20;;;1.70;;
56081;SDS011;41957;52.060;5.138;2022-07-01T09:52:20;6.88;;;1.75;;
56081;SDS011;41957;52.060;5.138;2022-07-01T09:54:46;6.97;;;1.70;;
56081;SDS011;41957;52.060;5.138;2022-07-01T09:57:16;7.80;;;1.90;;
56081;SDS011;41957;52.060;5.138;2022-07-01T09:59:42;7.72;;;1.70;;
56081;SDS011;41957;52.060;5.138;2022-07-01T10:02:08;6.72;;;1.50;;
56081;SDS011;41957;52.060;5.138;2022-07-01T10:04:39;7.72;;;1.63;;
56081;SDS011;41957;52.060;5.138;2022-07-01T10:12:55;10.70;;;1.90;;
56081;SDS011;41957;52.060;5.138;2022-07-01T10:15:22;6.80;;;1.60;;
56081;SDS011;41957;52.060;5.138;2022-07-01T10:17:50;10.18;;;1.90;;
56081;SDS011;41957;52.060;5.138;2022-07-01T10:20:28;13.65;;;2.22;;
56081;SDS011;41957;52.060;5.138;2022-07-01T10:23:05;8.07;;;1.90;;
56081;SDS011;41957;52.060;5.138;2022-07-01T10:25:39;9.38;;;2.10;;
56081;SDS011;41957;52.060;5.138;2022-07-01T10:28:19;7.72;;;1.75;;
56081;SDS011;41957;52.060;5.138;2022-07-01T10:33:28;10.45;;;1.80;;
56081;SDS011;41957;52.060;5.138;2022-07-01T10:36:03;9.18;;;1.80;;
56081;SDS011;41957;52.060;5.138;2022-07-01T10:38:29;9.68;;;1.98;;
56081;SDS011;41957;52.060;5.138;2022-07-01T10:40:55;6.90;;;1.67;;
56081;SDS011;41957;52.060;5.138;2022-07-01T10:43:33;8.38;;;2.00;;
56081;SDS011;41957;52.060;5.138;2022-07-01T10:45:59;10.23;;;1.80;;
56081;SDS011;41957;52.060;5.138;2022-07-01T10:48:25;6.95;;;1.73;;
56081;SDS011;41957;52.060;5.138;2022-07-01T10:50:51;7.68;;;1.60;;
56081;SDS011;41957;52.060;5.138;2022-07-01T10:53:17;7.97;;;1.60;;
56081;SDS011;41957;52.060;5.138;2022-07-01T10:55:45;8.88;;;1.88;;
56081;SDS011;41957;52.060;5.138;2022-07-01T10:58:15;9.55;;;1.80;;
56081;SDS011;41957;52.060;5.138;2022-07-01T11:00:44;10.43;;;1.73;;
56081;SDS011;41957;52.060;5.138;2022-07-01T11:03:15;9.27;;;1.73;;
56081;SDS011;41957;52.060;5.138;2022-07-01T11:05:43;11.57;;;1.85;;
56081;SDS011;41957;52.060;5.138;2022-07-01T11:08:10;10.50;;;1.80;;
56081;SDS011;41957;52.060;5.138;2022-07-01T11:10:37;9.98;;;1.80;;
56081;SDS011;41957;52.060;5.138;2022-07-01T11:13:03;9.23;;;1.90;;
56081;SDS011;41957;52.060;5.138;2022-07-01T11:15:29;8.40;;;1.70;;
56081;SDS011;41957;52.060;5.138;2022-07-01T11:17:55;7.45;;;1.42;;
56081;SDS011;41957;52.060;5.138;2022-07-01T11:20:23;8.05;;;1.50;;
56081;SDS011;41957;52.060;5.138;2022-07-01T11:22:54;7.97;;;1.60;;
56081;SDS011;41957;52.060;5.138;2022-07-01T11:25:20;7.38;;;1.75;;
56081;SDS011;41957;52.060;5.138;2022-07-01T11:27:48;10.27;;;1.80;;
56081;SDS011;41957;52.060;5.138;2022-07-01T11:30:15;9.50;;;1.63;;
56081;SDS011;41957;52.060;5.138;2022-07-01T11:32:48;9.07;;;1.73;;
56081;SDS011;41957;52.060;5.138;2022-07-01T11:35:17;6.82;;;1.70;;
56081;SDS011;41957;52.060;5.138;2022-07-01T11:38:08;6.47;;;1.52;;
56081;SDS011;41957;52.060;5.138;2022-07-01T11:41:01;6.75;;;1.50;;
56081;SDS011;41957;52.060;5.138;2022-07-01T11:43:33;9.43;;;1.63;;
56081;SDS011;41957;52.060;5.138;2022-07-01T11:46:02;10.15;;;1.70;;
56081;SDS011;41957;52.060;5.138;2022-07-01T11:48:42;7.20;;;1.80;;
56081;SDS011;41957;52.060;5.138;2022-07-01T11:51:13;9.00;;;1.80;;
56081;SDS011;41957;52.060;5.138;2022-07-01T11:53:41;8.48;;;1.70;;
56081;SDS011;41957;52.060;5.138;2022-07-01T11:56:09;8.35;;;1.90;;
56081;SDS011;41957;52.060;5.138;2022-07-01T11:58:39;8.10;;;1.70;;
56081;SDS011;41957;52.060;5.138;2022-07-01T12:01:22;13.02;;;2.00;;
56081;SDS011;41957;52.060;5.138;2022-07-01T12:03:57;6.10;;;1.60;;
56081;SDS011;41957;52.060;5.138;2022-07-01T12:06:24;7.43;;;1.42;;
56081;SDS011;41957;52.060;5.138;2022-07-01T12:08:51;8.35;;;1.70;;
56081;SDS011;41957;52.060;5.138;2022-07-01T12:11:18;7.43;;;1.40;;
56081;SDS011;41957;52.060;5.138;2022-07-01T12:13:45;9.23;;;1.65;;
56081;SDS011;41957;52.060;5.138;2022-07-01T12:16:12;7.82;;;1.80;;
56081;SDS011;41957;52.060;5.138;2022-07-01T12:18:38;7.78;;;1.85;;
56081;SDS011;41957;52.060;5.138;2022-07-01T12:21:04;6.25;;;1.75;;
56081;SDS011;41957;52.060;5.138;2022-07-01T12:23:29;6.78;;;1.58;;
56081;SDS011;41957;52.060;5.138;2022-07-01T12:25:57;5.88;;;1.50;;
56081;SDS011;41957;52.060;5.138;2022-07-01T12:31:09;8.65;;;1.95;;
56081;SDS011;41957;52.060;5.138;2022-07-01T12:33:39;7.93;;;1.83;;
56081;SDS011;41957;52.060;5.138;2022-07-01T12:36:12;6.47;;;1.63;;
56081;SDS011;41957;52.060;5.138;2022-07-01T12:38:40;7.72;;;1.73;;
56081;SDS011;41957;52.060;5.138;2022-07-01T12:43:55;7.43;;;1.58;;
56081;SDS011;41957;52.060;5.138;2022-07-01T12:46:30;10.00;;;2.00;;
56081;SDS011;41957;52.060;5.138;2022-07-01T12:48:57;8.13;;;1.65;;
56081;SDS011;41957;52.060;5.138;2022-07-01T12:51:30;9.20;;;1.70;;
56081;SDS011;41957;52.060;5.138;2022-07-01T12:56:24;9.98;;;1.77;;
56081;SDS011;41957;52.060;5.138;2022-07-01T12:58:54;11.70;;;2.35;;
56081;SDS011;41957;52.060;5.138;2022-07-01T13:01:20;10.88;;;2.00;;
56081;SDS011;41957;52.060;5.138;2022-07-01T13:03:46;9.88;;;2.40;;
56081;SDS011;41957;52.060;5.138;2022-07-01T13:06:12;11.02;;;1.90;;
56081;SDS011;41957;52.060;5.138;2022-07-01T13:08:37;11.85;;;1.95;;
56081;SDS011;41957;52.060;5.138;2022-07-01T13:11:03;10.20;;;2.10;;
56081;SDS011;41957;52.060;5.138;2022-07-01T13:13:28;9.43;;;1.98;;
56081;SDS011;41957;52.060;5.138;2022-07-01T13:15:54;8.35;;;2.00;;
56081;SDS011;41957;52.060;5.138;2022-07-01T13:18:20;9.20;;;1.70;;
56081;SDS011;41957;52.060;5.138;2022-07-01T13:20:46;9.82;;;1.70;;
56081;SDS011;41957;52.060;5.138;2022-07-01T13:23:11;10.68;;;2.00;;
56081;SDS011;41957;52.060;5.138;2022-07-01T13:25:37;9.05;;;1.88;;
56081;SDS011;41957;52.060;5.138;2022-07-01T13:28:03;6.80;;;1.65;;
56081;SDS011;41957;52.060;5.138;2022-07-01T13:30:29;9.07;;;1.80;;
56081;SDS011;41957;52.060;5.138;2022-07-01T13:32:54;7.43;;;1.63;;
56081;SDS011;41957;52.060;5.138;2022-07-01T13:35:21;6.82;;;1.70;;
56081;SDS011;41957;52.060;5.138;2022-07-01T13:37:48;10.05;;;2.15;;
56081;SDS011;41957;52.060;5.138;2022-07-01T13:40:14;9.00;;;1.83;;
56081;SDS011;41957;52.060;5.138;2022-07-01T13:42:40;9.13;;;2.20;;
56081;SDS011;41957;52.060;5.138;2022-07-01T13:45:06;11.15;;;2.05;;
56081;SDS011;41957;52.060;5.138;2022-07-01T13:47:32;8.68;;;1.98;;
56081;SDS011;41957;52.060;5.138;2022-07-01T13:49:58;9.23;;;2.28;;
56081;SDS011;41957;52.060;5.138;2022-07-01T13:52:24;10.57;;;2.00;;
56081;SDS011;41957;52.060;5.138;2022-07-01T13:54:49;10.60;;;1.80;;
56081;SDS011;41957;52.060;5.138;2022-07-01T13:57:15;9.32;;;2.05;;
56081;SDS011;41957;52.060;5.138;2022-07-01T13:59:40;9.95;;;2.03;;
56081;SDS011;41957;52.060;5.138;2022-07-01T14:02:06;8.27;;;1.83;;
56081;SDS011;41957;52.060;5.138;2022-07-01T14:04:32;10.43;;;2.28;;
56081;SDS011;41957;52.060;5.138;2022-07-01T14:06:58;8.40;;;1.73;;
56081;SDS011;41957;52.060;5.138;2022-07-01T14:09:23;8.75;;;1.70;;
56081;SDS011;41957;52.060;5.138;2022-07-01T14:11:48;6.82;;;1.60;;
56081;SDS011;41957;52.060;5.138;2022-07-01T14:14:14;10.88;;;1.73;;
56081;SDS011;41957;52.060;5.138;2022-07-01T14:16:39;9.23;;;1.80;;
56081;SDS011;41957;52.060;5.138;2022-07-01T14:19:05;7.97;;;2.00;;
56081;SDS011;41957;52.060;5.138;2022-07-01T14:21:30;7.90;;;1.75;;
56081;SDS011;41957;52.060;5.138;2022-07-01T14:23:55;9.10;;;1.92;;
56081;SDS011;41957;52.060;5.138;2022-07-01T14:26:21;7.15;;;1.80;;
56081;SDS011;41957;52.060;5.138;2022-07-01T14:28:46;8.70;;;1.98;;
56081;SDS011;41957;52.060;5.138;2022-07-01T14:31:11;8.93;;;1.77;;
56081;SDS011;41957;52.060;5.138;2022-07-01T14:33:37;6.30;;;1.65;;
56081;SDS011;41957;52.060;5.138;2022-07-01T14:36:03;8.48;;;2.08;;
56081;SDS011;41957;52.060;5.138;2022-07-01T14:38:28;7.25;;;1.88;;
56081;SDS011;41957;52.060;5.138;2022-07-01T14:40:54;7.55;;;1.70;;
56081;SDS011;41957;52.060;5.138;2022-07-01T14:43:19;7.20;;;1.70;;
56081;SDS011;41957;52.060;5.138;2022-07-01T14:45:45;8.13;;;1.70;;
56081;SDS011;41957;52.060;5.138;2022-07-01T14:48:11;8.10;;;1.73;;
56081;SDS011;41957;52.060;5.138;2022-07-01T14:50:37;8.82;;;1.85;;
56081;SDS011;41957;52.060;5.138;2022-07-01T14:53:05;8.95;;;2.00;;
56081;SDS011;41957;52.060;5.138;2022-07-01T14:55:30;8.43;;;1.80;;
56081;SDS011;41957;52.060;5.138;2022-07-01T14:57:56;7.47;;;1.67;;
56081;SDS011;41957;52.060;5.138;2022-07-01T15:00:21;9.00;;;2.00;;